Time;durP1;ratioP1;P1;durP2;ratioP2;P2;SDS_P1;SDS_P2;PMS_P1;PMS_P2;Temp;Humidity;BMP_temperature;BMP_pressure;BME280_temperature;BME280_humidity;BME280_pressure;Samples;Min_cycle;Max_cycle;Signal;HPM_P1;HPM_P2
2022/03/17 00:02:15;;;;;;;;;8.00;8.00;;;;;;;;5022627;28;10381;-77
2022/03/17 00:04:43;;;;;;;;;12.50;12.50;;;;;;;;5025183;28;10576;-77
2022/03/17 00:07:10;;;;;;;;;9.75;9.75;;;;;;;;5023584;28;10319;-77
2022/03/17 00:09:37;;;;;;;;;9.25;9.25;;;;;;;;5006664;28;10214;-77
2022/03/17 00:12:05;;;;;;;;;10.25;10.25;;;;;;;;5017379;28;11028;-77
2022/03/17 00:14:33;;;;;;;;;10.00;8.50;;;;;;;;5024603;28;10334;-77
2022/03/17 00:17:02;;;;;;;;;12.50;12.50;;;;;;;;5024159;28;10315;-76
2022/03/17 00:19:30;;;;;;;;;12.25;11.75;;;;;;;;5025829;28;11056;-76
2022/03/17 00:21:57;;;;;;;;;9.00;9.00;;;;;;;;5005315;28;10254;-76
2022/03/17 00:24:25;;;;;;;;;13.75;12.75;;;;;;;;5024312;28;10323;-76
2022/03/17 00:26:52;;;;;;;;;16.00;15.75;;;;;;;;5023863;28;10358;-77
2022/03/17 00:29:19;;;;;;;;;14.25;14.25;;;;;;;;5023713;28;10496;-79
2022/03/17 00:31:47;;;;;;;;;12.25;12.25;;;;;;;;5026643;28;11183;-78
2022/03/17 00:34:15;;;;;;;;;14.50;13.75;;;;;;;;5033166;28;10430;-76
2022/03/17 00:36:43;;;;;;;;;16.00;15.25;;;;;;;;5024600;28;10415;-78
2022/03/17 00:39:11;;;;;;;;;13.25;11.75;;;;;;;;5037506;28;10480;-76
2022/03/17 00:41:38;;;;;;;;;12.25;12.25;;;;;;;;5014510;28;11467;-77
2022/03/17 00:44:06;;;;;;;;;17.50;13.00;;;;;;;;5029373;28;10600;-77
2022/03/17 00:46:33;;;;;;;;;15.25;14.25;;;;;;;;5020569;28;10649;-77
2022/03/17 00:49:01;;;;;;;;;17.25;16.25;;;;;;;;5023763;28;10481;-78
2022/03/17 00:51:30;;;;;;;;;14.75;14.75;;;;;;;;5000947;28;10495;-79
2022/03/17 00:53:57;;;;;;;;;21.75;18.00;;;;;;;;5023856;28;10686;-78
2022/03/17 00:56:25;;;;;;;;;14.75;14.00;;;;;;;;5023237;28;10551;-77
2022/03/17 00:58:52;;;;;;;;;21.75;19.00;;;;;;;;5023664;28;11200;-77
2022/03/17 01:01:20;;;;;;;;;17.50;17.50;;;;;;;;5022584;28;10412;-77
2022/03/17 01:03:48;;;;;;;;;17.00;14.25;;;;;;;;5023026;28;10485;-77
2022/03/17 01:06:16;;;;;;;;;14.25;13.75;;;;;;;;5022893;28;10396;-76
2022/03/17 01:08:45;;;;;;;;;17.00;15.50;;;;;;;;5021201;28;10547;-78
2022/03/17 01:11:12;;;;;;;;;18.75;15.25;;;;;;;;5023209;28;10466;-77
2022/03/17 01:13:40;;;;;;;;;17.50;17.25;;;;;;;;5023061;28;10574;-76
2022/03/17 01:16:07;;;;;;;;;15.50;15.50;;;;;;;;5024952;28;10463;-77
2022/03/17 01:18:34;;;;;;;;;14.25;14.25;;;;;;;;5021785;28;10420;-77
2022/03/17 01:21:02;;;;;;;;;20.25;18.25;;;;;;;;5022290;28;10541;-78
2022/03/17 01:23:29;;;;;;;;;12.75;12.75;;;;;;;;5023003;28;10463;-77
2022/03/17 01:25:58;;;;;;;;;14.25;14.25;;;;;;;;5023663;28;11331;-77
2022/03/17 01:28:25;;;;;;;;;14.25;14.25;;;;;;;;5030115;28;10475;-76
2022/03/17 01:30:53;;;;;;;;;20.00;17.50;;;;;;;;5026658;28;10590;-76
2022/03/17 01:33:20;;;;;;;;;17.00;15.00;;;;;;;;5025088;28;10647;-77
2022/03/17 01:35:48;;;;;;;;;18.50;17.25;;;;;;;;5023891;28;10559;-76
2022/03/17 01:38:15;;;;;;;;;18.50;16.25;;;;;;;;5028752;28;10751;-78
2022/03/17 01:40:42;;;;;;;;;16.00;13.00;;;;;;;;5022036;28;10544;-77
2022/03/17 01:43:12;;;;;;;;;14.00;14.00;;;;;;;;5029045;28;10571;-77
2022/03/17 01:45:39;;;;;;;;;12.25;12.25;;;;;;;;5024228;28;10792;-77
2022/03/17 01:48:06;;;;;;;;;14.25;12.00;;;;;;;;5021918;28;10589;-77
2022/03/17 01:50:34;;;;;;;;;12.75;12.75;;;;;;;;5005247;28;10650;-77
2022/03/17 01:53:01;;;;;;;;;12.25;10.75;;;;;;;;5026790;28;10590;-77
2022/03/17 01:55:30;;;;;;;;;10.75;10.75;;;;;;;;5022807;28;10567;-77
2022/03/17 01:57:58;;;;;;;;;9.75;9.75;;;;;;;;5026441;28;10852;-76
2022/03/17 02:00:29;;;;;;;;;12.50;10.75;;;;;;;;5022016;28;10648;-77
2022/03/17 02:02:56;;;;;;;;;17.00;12.50;;;;;;;;5017414;28;10737;-78
2022/03/17 02:05:23;;;;;;;;;13.50;10.50;;;;;;;;5020416;28;10704;-76
2022/03/17 02:07:51;;;;;;;;;11.75;11.00;;;;;;;;5026942;28;10630;-76
2022/03/17 02:10:18;;;;;;;;;11.00;11.00;;;;;;;;5003353;28;10719;-76
2022/03/17 02:15:33;;;;;;;;;10.75;10.75;;;;;;;;5019589;28;10643;-78
2022/03/17 02:18:00;;;;;;;;;7.75;7.75;;;;;;;;5025547;28;10671;-76
2022/03/17 02:20:28;;;;;;;;;8.00;7.00;;;;;;;;5022790;28;10472;-77
2022/03/17 02:25:33;;;;;;;;;10.50;10.50;;;;;;;;5031032;28;10495;-76
2022/03/17 02:25:50;;;;;;;;;11.00;9.25;;;;;;;;5021628;28;10616;-76
2022/03/17 02:28:18;;;;;;;;;7.75;7.75;;;;;;;;5020093;28;10729;-75
2022/03/17 02:30:46;;;;;;;;;9.50;6.00;;;;;;;;5021552;28;11086;-76
2022/03/17 02:33:16;;;;;;;;;8.00;8.00;;;;;;;;5023043;28;11478;-76
2022/03/17 02:35:43;;;;;;;;;9.50;9.50;;;;;;;;5018934;28;10761;-76
2022/03/17 02:38:13;;;;;;;;;11.25;11.25;;;;;;;;5025475;28;10617;-77
2022/03/17 02:40:42;;;;;;;;;9.00;9.00;;;;;;;;5016849;28;10707;-76
2022/03/17 02:43:11;;;;;;;;;13.00;13.00;;;;;;;;5023840;28;10987;-76
2022/03/17 02:45:39;;;;;;;;;13.75;13.75;;;;;;;;5020289;28;10969;-77
2022/03/17 02:48:07;;;;;;;;;16.00;16.00;;;;;;;;5033335;28;10864;-75
2022/03/17 02:50:35;;;;;;;;;16.75;16.75;;;;;;;;5021592;28;11683;-75
2022/03/17 02:53:05;;;;;;;;;16.50;11.25;;;;;;;;5035736;28;10896;-77
2022/03/17 02:55:32;;;;;;;;;17.00;16.75;;;;;;;;5030863;28;10917;-78
2022/03/17 02:58:00;;;;;;;;;15.25;14.00;;;;;;;;5020835;28;11018;-76
2022/03/17 03:00:28;;;;;;;;;18.75;17.00;;;;;;;;5019953;28;10732;-76
2022/03/17 03:02:56;;;;;;;;;17.00;15.00;;;;;;;;5020905;28;10955;-77
2022/03/17 03:05:24;;;;;;;;;15.00;15.00;;;;;;;;5021160;28;10892;-77
2022/03/17 03:07:52;;;;;;;;;16.25;14.00;;;;;;;;5023515;28;10725;-77
2022/03/17 03:10:19;;;;;;;;;16.00;14.50;;;;;;;;5021482;28;10804;-78
2022/03/17 03:12:47;;;;;;;;;16.25;12.50;;;;;;;;5033152;28;10912;-77
2022/03/17 03:15:14;;;;;;;;;16.25;13.00;;;;;;;;5007965;28;10980;-77
2022/03/17 03:17:43;;;;;;;;;15.00;15.00;;;;;;;;5026956;28;10996;-78
2022/03/17 03:20:12;;;;;;;;;17.75;16.00;;;;;;;;5023362;28;10995;-77
2022/03/17 03:22:40;;;;;;;;;15.50;15.50;;;;;;;;5024215;28;11044;-76
2022/03/17 03:25:09;;;;;;;;;19.25;13.75;;;;;;;;5024417;28;10942;-76
2022/03/17 03:27:39;;;;;;;;;19.25;13.50;;;;;;;;5025146;28;11053;-77
2022/03/17 03:30:08;;;;;;;;;16.25;16.25;;;;;;;;5027697;28;11023;-78
2022/03/17 03:32:36;;;;;;;;;11.50;11.50;;;;;;;;5022561;28;11123;-76
2022/03/17 03:37:22;;;;;;;;;15.75;13.50;;;;;;;;5025952;28;11306;-78
2022/03/17 03:37:53;;;;;;;;;12.00;11.25;;;;;;;;4999947;28;10881;-78
2022/03/17 03:40:23;;;;;;;;;15.75;13.25;;;;;;;;5024225;28;11037;-78
2022/03/17 03:42:50;;;;;;;;;15.50;15.50;;;;;;;;5025184;28;10973;-78
2022/03/17 03:45:18;;;;;;;;;12.00;12.00;;;;;;;;5023771;28;11025;-78
2022/03/17 03:47:46;;;;;;;;;13.25;13.25;;;;;;;;5024653;28;11038;-79
2022/03/17 03:50:15;;;;;;;;;15.25;13.75;;;;;;;;5023392;28;10991;-76
2022/03/17 03:52:43;;;;;;;;;13.50;11.25;;;;;;;;5038603;28;10888;-77
2022/03/17 03:55:11;;;;;;;;;12.00;11.00;;;;;;;;5039710;28;11224;-77
2022/03/17 03:57:39;;;;;;;;;18.00;15.25;;;;;;;;5026765;28;11086;-77
2022/03/17 04:00:17;;;;;;;;;13.75;11.50;;;;;;;;5022359;28;11141;-77
2022/03/17 04:02:45;;;;;;;;;15.00;15.00;;;;;;;;5023659;28;11116;-78
2022/03/17 04:05:14;;;;;;;;;15.75;13.75;;;;;;;;4990554;28;11197;-77
2022/03/17 04:07:42;;;;;;;;;10.50;10.50;;;;;;;;5024277;28;11158;-77
2022/03/17 04:10:09;;;;;;;;;13.50;10.25;;;;;;;;5032048;28;11251;-77
2022/03/17 04:12:37;;;;;;;;;17.75;13.25;;;;;;;;5037741;28;11206;-77
2022/03/17 04:15:05;;;;;;;;;17.75;14.50;;;;;;;;5025329;28;11196;-78
2022/03/17 04:17:32;;;;;;;;;11.00;11.00;;;;;;;;5024252;28;11202;-76
2022/03/17 04:19:59;;;;;;;;;15.00;12.75;;;;;;;;5024161;28;11299;-76
2022/03/17 04:22:28;;;;;;;;;12.50;12.50;;;;;;;;5023524;28;11186;-76
2022/03/17 04:24:56;;;;;;;;;12.75;10.00;;;;;;;;5006177;28;11207;-76
2022/03/17 04:27:23;;;;;;;;;11.50;11.25;;;;;;;;5024160;28;11177;-78
2022/03/17 04:29:50;;;;;;;;;10.25;10.25;;;;;;;;5021535;28;11135;-78
2022/03/17 04:32:18;;;;;;;;;16.75;14.50;;;;;;;;5027040;28;11229;-79
2022/03/17 04:34:45;;;;;;;;;10.25;9.75;;;;;;;;5022980;28;11361;-78
2022/03/17 04:37:12;;;;;;;;;10.50;10.00;;;;;;;;5028492;28;11458;-76
2022/03/17 04:39:41;;;;;;;;;11.50;11.50;;;;;;;;5028866;28;11256;-77
2022/03/17 04:42:09;;;;;;;;;13.50;7.75;;;;;;;;5028499;28;11128;-77
2022/03/17 04:44:37;;;;;;;;;9.75;9.75;;;;;;;;5022183;28;10929;-77
2022/03/17 04:47:05;;;;;;;;;11.75;11.00;;;;;;;;5023495;28;11245;-78
2022/03/17 04:49:33;;;;;;;;;11.25;7.50;;;;;;;;5007135;28;11671;-77
2022/03/17 04:52:00;;;;;;;;;10.75;10.75;;;;;;;;5026806;28;10985;-78
2022/03/17 04:54:27;;;;;;;;;7.00;7.00;;;;;;;;5018865;28;11048;-77
2022/03/17 04:56:56;;;;;;;;;7.00;7.00;;;;;;;;5026838;28;11069;-78
2022/03/17 04:59:23;;;;;;;;;5.00;5.00;;;;;;;;5029402;28;11079;-77
2022/03/17 05:01:51;;;;;;;;;10.00;6.75;;;;;;;;5026524;28;10945;-76
2022/03/17 05:04:18;;;;;;;;;9.00;6.75;;;;;;;;5036259;28;10994;-78
2022/03/17 05:06:45;;;;;;;;;7.00;7.00;;;;;;;;5022681;28;11039;-74
2022/03/17 05:09:12;;;;;;;;;5.00;5.00;;;;;;;;5023185;28;11169;-75
2022/03/17 05:11:41;;;;;;;;;6.50;6.50;;;;;;;;5025036;28;11006;-77
2022/03/17 05:14:10;;;;;;;;;7.00;7.00;;;;;;;;5031717;28;10989;-76
2022/03/17 05:16:38;;;;;;;;;6.00;6.00;;;;;;;;5015402;28;10834;-76
2022/03/17 05:19:05;;;;;;;;;6.00;6.00;;;;;;;;5021070;28;10907;-76
2022/03/17 05:21:34;;;;;;;;;8.50;7.00;;;;;;;;5022931;28;11777;-76
2022/03/17 05:24:01;;;;;;;;;7.00;6.50;;;;;;;;5023454;28;10909;-78
2022/03/17 05:26:28;;;;;;;;;14.00;9.50;;;;;;;;5028328;28;11021;-77
2022/03/17 05:28:55;;;;;;;;;7.25;7.25;;;;;;;;5035394;28;11115;-77
2022/03/17 05:31:24;;;;;;;;;6.00;6.00;;;;;;;;5020922;28;11143;-78
2022/03/17 05:33:51;;;;;;;;;5.25;5.25;;;;;;;;5024470;28;11077;-77
2022/03/17 05:36:19;;;;;;;;;6.50;6.50;;;;;;;;5026759;28;12104;-77
2022/03/17 05:38:46;;;;;;;;;6.00;6.00;;;;;;;;5026165;28;11099;-77
2022/03/17 05:41:13;;;;;;;;;10.00;7.00;;;;;;;;5025892;28;11206;-78
2022/03/17 05:43:41;;;;;;;;;10.75;7.00;;;;;;;;5009502;28;11017;-78
2022/03/17 05:46:08;;;;;;;;;8.00;5.00;;;;;;;;5028047;28;11044;-76
2022/03/17 05:48:39;;;;;;;;;8.25;8.25;;;;;;;;5029107;28;11094;-77
2022/03/17 05:51:07;;;;;;;;;7.00;7.00;;;;;;;;5029592;28;11263;-77
2022/03/17 05:53:34;;;;;;;;;6.00;5.75;;;;;;;;5028029;28;11107;-79
2022/03/17 05:56:01;;;;;;;;;9.25;8.75;;;;;;;;5007965;28;11110;-80
2022/03/17 05:58:29;;;;;;;;;9.50;9.50;;;;;;;;5028028;28;11305;-78
2022/03/17 06:00:57;;;;;;;;;8.50;7.00;;;;;;;;5022939;28;11088;-75
2022/03/17 06:03:25;;;;;;;;;6.25;6.25;;;;;;;;5022918;28;11112;-82
2022/03/17 06:05:53;;;;;;;;;9.50;9.50;;;;;;;;5020747;28;11103;-79
2022/03/17 06:08:21;;;;;;;;;8.25;8.25;;;;;;;;5025451;28;11143;-83
2022/03/17 06:10:48;;;;;;;;;6.75;6.75;;;;;;;;5023302;28;11049;-82
2022/03/17 06:13:15;;;;;;;;;9.25;9.25;;;;;;;;5024529;28;11099;-77
2022/03/17 06:15:43;;;;;;;;;7.25;5.75;;;;;;;;5021571;28;11072;-81
2022/03/17 06:18:11;;;;;;;;;7.50;7.50;;;;;;;;5021461;28;10960;-80
2022/03/17 06:20:39;;;;;;;;;10.25;10.25;;;;;;;;5021964;28;11834;-79
2022/03/17 06:23:08;;;;;;;;;6.25;6.25;;;;;;;;5019499;28;11032;-85
2022/03/17 06:25:37;;;;;;;;;10.75;8.25;;;;;;;;5002858;28;10995;-83
2022/03/17 06:28:05;;;;;;;;;6.75;6.75;;;;;;;;5020990;28;11020;-81
2022/03/17 06:30:42;;;;;;;;;7.25;7.25;;;;;;;;5026688;28;10952;-82
2022/03/17 06:33:13;;;;;;;;;7.75;7.75;;;;;;;;5025344;28;11069;-84
2022/03/17 06:35:41;;;;;;;;;10.00;10.00;;;;;;;;5020898;28;11070;-86
2022/03/17 06:38:11;;;;;;;;;7.00;5.50;;;;;;;;5006626;28;11193;-87
2022/03/17 06:40:41;;;;;;;;;7.00;7.00;;;;;;;;5023149;28;11186;-84
2022/03/17 06:43:09;;;;;;;;;8.50;8.50;;;;;;;;5021992;28;11093;-80
2022/03/17 06:45:36;;;;;;;;;7.00;7.00;;;;;;;;5022800;28;11123;-76
2022/03/17 06:48:07;;;;;;;;;9.00;7.00;;;;;;;;5025478;28;11128;-79
2022/03/17 06:50:35;;;;;;;;;10.00;7.50;;;;;;;;5025548;28;11088;-78
2022/03/17 06:53:02;;;;;;;;;5.25;5.25;;;;;;;;5022776;28;11186;-77
2022/03/17 06:55:33;;;;;;;;;10.00;10.00;;;;;;;;5025482;28;11563;-76
2022/03/17 06:58:00;;;;;;;;;13.50;9.50;;;;;;;;5023253;28;11437;-77
2022/03/17 07:00:28;;;;;;;;;6.75;6.75;;;;;;;;5020412;28;11269;-77
2022/03/17 07:02:55;;;;;;;;;5.00;5.00;;;;;;;;5024032;28;11525;-77
2022/03/17 07:05:22;;;;;;;;;6.75;6.50;;;;;;;;5019260;28;11164;-78
2022/03/17 07:07:50;;;;;;;;;11.25;8.25;;;;;;;;5022809;28;11008;-78
2022/03/17 07:10:17;;;;;;;;;11.50;9.75;;;;;;;;5023070;28;11057;-79
2022/03/17 07:12:47;;;;;;;;;7.50;7.25;;;;;;;;5017938;28;10993;-78
2022/03/17 07:15:14;;;;;;;;;10.00;9.50;;;;;;;;5022171;28;11112;-77
2022/03/17 07:17:43;;;;;;;;;10.00;10.00;;;;;;;;5004620;28;11018;-78
2022/03/17 07:20:12;;;;;;;;;13.75;10.75;;;;;;;;5015987;28;11046;-77
2022/03/17 07:22:41;;;;;;;;;17.00;16.50;;;;;;;;5023468;28;11093;-78
2022/03/17 07:25:09;;;;;;;;;31.50;28.50;;;;;;;;5024598;28;11559;-78
2022/03/17 07:27:40;;;;;;;;;19.25;19.25;;;;;;;;5032274;28;12198;-75
2022/03/17 07:30:13;;;;;;;;;18.25;14.00;;;;;;;;5021717;28;11438;-79
2022/03/17 07:32:40;;;;;;;;;18.25;14.75;;;;;;;;5020875;28;11144;-76
2022/03/17 07:35:08;;;;;;;;;17.00;17.00;;;;;;;;5023247;28;11192;-82
2022/03/17 07:37:36;;;;;;;;;29.25;25.00;;;;;;;;5024725;28;11580;-78
2022/03/17 07:40:03;;;;;;;;;9.25;9.25;;;;;;;;5024773;28;11495;-79
2022/03/17 07:42:31;;;;;;;;;11.50;7.50;;;;;;;;5023522;28;11731;-80
2022/03/17 07:44:59;;;;;;;;;30.50;24.00;;;;;;;;5020007;28;10930;-79
2022/03/17 07:47:28;;;;;;;;;15.75;15.75;;;;;;;;5024070;28;11452;-80
2022/03/17 07:49:56;;;;;;;;;19.00;13.25;;;;;;;;5023514;28;11106;-79
2022/03/17 07:52:24;;;;;;;;;14.25;12.50;;;;;;;;5027781;28;10890;-79
2022/03/17 07:54:51;;;;;;;;;15.25;11.00;;;;;;;;5023771;28;10966;-79
2022/03/17 07:57:18;;;;;;;;;13.75;11.50;;;;;;;;5026285;28;11049;-77
2022/03/17 07:59:46;;;;;;;;;18.75;17.75;;;;;;;;5020906;28;11623;-79
2022/03/17 08:02:13;;;;;;;;;15.50;12.50;;;;;;;;5023952;28;11863;-79
2022/03/17 08:04:47;;;;;;;;;19.25;18.50;;;;;;;;5006483;28;11091;-80
2022/03/17 08:07:15;;;;;;;;;16.50;13.50;;;;;;;;5030423;28;11210;-80
2022/03/17 08:09:43;;;;;;;;;13.75;11.50;;;;;;;;5022319;28;11765;-78
2022/03/17 08:12:11;;;;;;;;;13.50;11.25;;;;;;;;5025180;28;11038;-78
2022/03/17 08:14:38;;;;;;;;;20.25;16.00;;;;;;;;5027375;28;10998;-78
2022/03/17 08:17:06;;;;;;;;;16.75;16.00;;;;;;;;5024618;28;11133;-78
2022/03/17 08:19:33;;;;;;;;;18.50;18.50;;;;;;;;5026274;28;11134;-79
2022/03/17 08:22:07;;;;;;;;;18.25;11.50;;;;;;;;5012876;28;11145;-78
2022/03/17 08:24:34;;;;;;;;;15.50;14.50;;;;;;;;5019128;28;11083;-77
2022/03/17 08:27:02;;;;;;;;;19.00;16.00;;;;;;;;5020278;28;11053;-78
2022/03/17 08:29:30;;;;;;;;;12.00;10.25;;;;;;;;5020501;28;11109;-77
2022/03/17 08:31:57;;;;;;;;;16.25;11.75;;;;;;;;5036270;28;10970;-77
2022/03/17 08:34:26;;;;;;;;;16.25;14.50;;;;;;;;5023140;28;11034;-79
2022/03/17 08:36:55;;;;;;;;;15.00;15.00;;;;;;;;5023250;28;11051;-79
2022/03/17 08:39:24;;;;;;;;;14.25;14.00;;;;;;;;5003861;28;11968;-79
2022/03/17 08:41:52;;;;;;;;;15.25;13.75;;;;;;;;5023327;28;11046;-80
2022/03/17 08:44:19;;;;;;;;;11.00;7.00;;;;;;;;5023217;28;11866;-78
2022/03/17 08:49:31;;;;;;;;;13.50;12.00;;;;;;;;5020277;28;11703;-79
2022/03/17 08:52:01;;;;;;;;;15.50;15.25;;;;;;;;5022523;28;10937;-79
2022/03/17 08:54:33;;;;;;;;;15.25;11.25;;;;;;;;5021574;28;10975;-79
2022/03/17 08:57:00;;;;;;;;;14.75;10.25;;;;;;;;5020954;28;10836;-79
2022/03/17 08:59:30;;;;;;;;;8.50;8.50;;;;;;;;5027601;28;10882;-78
2022/03/17 09:01:57;;;;;;;;;13.00;11.25;;;;;;;;5024031;28;10831;-79
2022/03/17 09:04:25;;;;;;;;;15.00;12.50;;;;;;;;5023385;28;11736;-79
2022/03/17 09:06:54;;;;;;;;;11.50;11.50;;;;;;;;5022671;28;10893;-79
2022/03/17 09:09:21;;;;;;;;;12.00;12.00;;;;;;;;5022984;28;11017;-79
2022/03/17 09:11:50;;;;;;;;;14.00;14.00;;;;;;;;5023480;28;11081;-78
2022/03/17 09:14:17;;;;;;;;;17.75;16.00;;;;;;;;5020322;28;11038;-79
2022/03/17 09:16:45;;;;;;;;;12.50;10.75;;;;;;;;5022529;28;10885;-80
2022/03/17 09:19:13;;;;;;;;;15.75;13.00;;;;;;;;5022934;28;10713;-81
2022/03/17 09:21:40;;;;;;;;;16.75;12.25;;;;;;;;5020749;28;10748;-80
2022/03/17 09:24:08;;;;;;;;;13.00;11.00;;;;;;;;5024743;28;10886;-79
2022/03/17 09:26:36;;;;;;;;;10.00;10.00;;;;;;;;5002660;28;10761;-79
2022/03/17 09:29:05;;;;;;;;;11.00;11.00;;;;;;;;5022980;28;11461;-77
2022/03/17 09:31:33;;;;;;;;;9.50;9.50;;;;;;;;5018872;28;10642;-78
2022/03/17 09:34:00;;;;;;;;;12.25;11.25;;;;;;;;5022031;28;10906;-79
2022/03/17 09:36:27;;;;;;;;;11.50;9.75;;;;;;;;5020927;28;10806;-78
2022/03/17 09:41:42;;;;;;;;;6.25;6.25;;;;;;;;5023665;28;10904;-79
2022/03/17 09:44:11;;;;;;;;;12.00;10.25;;;;;;;;5007312;28;10658;-81
2022/03/17 09:46:40;;;;;;;;;11.25;10.25;;;;;;;;5021447;28;10633;-80
2022/03/17 09:49:08;;;;;;;;;18.75;16.25;;;;;;;;5004126;28;10830;-80
2022/03/17 09:51:37;;;;;;;;;11.75;9.25;;;;;;;;5020299;28;11524;-80
2022/03/17 09:54:04;;;;;;;;;15.00;12.50;;;;;;;;5008199;28;10773;-81
2022/03/17 09:56:31;;;;;;;;;12.25;11.25;;;;;;;;5014696;28;10696;-80
2022/03/17 09:59:01;;;;;;;;;8.25;8.25;;;;;;;;5020382;28;10869;-81
2022/03/17 10:01:29;;;;;;;;;14.00;11.75;;;;;;;;5022085;28;11463;-81
2022/03/17 10:04:01;;;;;;;;;15.00;15.00;;;;;;;;5022309;28;10800;-78
2022/03/17 10:06:30;;;;;;;;;7.25;7.25;;;;;;;;5021264;28;10724;-80
2022/03/17 10:08:59;;;;;;;;;12.50;10.50;;;;;;;;5022980;28;10636;-79
2022/03/17 10:11:30;;;;;;;;;15.25;12.25;;;;;;;;5021659;28;10631;-79
2022/03/17 10:13:59;;;;;;;;;12.50;12.50;;;;;;;;5029641;28;10567;-79
2022/03/17 10:16:31;;;;;;;;;9.25;9.25;;;;;;;;5022614;28;11519;-80
2022/03/17 10:21:44;;;;;;;;;8.75;8.75;;;;;;;;5025320;28;10571;-83
2022/03/17 10:24:12;;;;;;;;;16.25;11.50;;;;;;;;5021091;28;10542;-78
2022/03/17 10:26:41;;;;;;;;;11.00;11.00;;;;;;;;5024483;28;10743;-78
2022/03/17 10:29:12;;;;;;;;;9.25;9.25;;;;;;;;5029152;28;10676;-80
2022/03/17 10:31:57;;;;;;;;;14.75;10.75;;;;;;;;5016290;28;11289;-80
2022/03/17 10:34:26;;;;;;;;;11.75;11.00;;;;;;;;5013728;28;10619;-80
2022/03/17 10:37:07;;;;;;;;;13.00;11.50;;;;;;;;5019206;28;10583;-78
2022/03/17 10:39:44;;;;;;;;;12.00;12.00;;;;;;;;5018334;28;10655;-76
2022/03/17 10:42:18;;;;;;;;;12.00;12.00;;;;;;;;5016470;28;10514;-77
2022/03/17 10:44:51;;;;;;;;;12.00;10.50;;;;;;;;5020681;28;10598;-78
2022/03/17 10:47:28;;;;;;;;;10.50;10.50;;;;;;;;5018619;28;10720;-80
2022/03/17 10:50:07;;;;;;;;;11.50;9.75;;;;;;;;5021438;28;10502;-79
2022/03/17 10:52:51;;;;;;;;;12.00;12.00;;;;;;;;5021866;28;11592;-79
2022/03/17 10:55:23;;;;;;;;;12.50;11.25;;;;;;;;5022604;28;10579;-77
2022/03/17 10:57:51;;;;;;;;;13.75;12.50;;;;;;;;5020500;28;10683;-78
2022/03/17 11:00:24;;;;;;;;;15.25;13.00;;;;;;;;5020898;28;10511;-76
2022/03/17 11:02:57;;;;;;;;;11.00;11.00;;;;;;;;5020728;28;10337;-79
2022/03/17 11:05:28;;;;;;;;;8.50;8.50;;;;;;;;5016113;28;10471;-80
2022/03/17 11:08:18;;;;;;;;;17.75;13.50;;;;;;;;5018220;28;10397;-81
2022/03/17 11:13:40;;;;;;;;;20.75;17.50;;;;;;;;5009309;28;10430;-79
2022/03/17 11:16:09;;;;;;;;;13.75;12.00;;;;;;;;5023137;28;10429;-78
2022/03/17 11:18:39;;;;;;;;;12.50;12.50;;;;;;;;5028352;28;10330;-81
2022/03/17 11:21:13;;;;;;;;;12.75;12.50;;;;;;;;5027072;28;10708;-80
2022/03/17 11:23:55;;;;;;;;;14.75;9.75;;;;;;;;5017195;28;10325;-81
2022/03/17 11:26:25;;;;;;;;;9.00;9.00;;;;;;;;5018019;28;11162;-78
2022/03/17 11:29:00;;;;;;;;;15.00;8.75;;;;;;;;5020225;28;10430;-77
2022/03/17 11:31:29;;;;;;;;;12.00;7.50;;;;;;;;5021900;28;10927;-80
2022/03/17 11:34:00;;;;;;;;;12.75;12.75;;;;;;;;5002836;28;10413;-81
2022/03/17 11:36:27;;;;;;;;;13.50;13.50;;;;;;;;5024276;28;10486;-79
2022/03/17 11:39:18;;;;;;;;;11.75;11.75;;;;;;;;5023929;28;10497;-79
2022/03/17 11:41:47;;;;;;;;;16.50;12.50;;;;;;;;5023125;28;10550;-76
2022/03/17 11:44:31;;;;;;;;;15.75;13.50;;;;;;;;4997168;22;10508;-77
2022/03/17 11:49:46;;;;;;;;;13.25;11.25;;;;;;;;4931535;28;10559;-80
2022/03/17 11:52:13;;;;;;;;;15.00;13.75;;;;;;;;4937339;28;10731;-82
2022/03/17 11:54:41;;;;;;;;;16.25;16.25;;;;;;;;4938459;28;10468;-78
2022/03/17 11:57:08;;;;;;;;;7.75;7.75;;;;;;;;4988618;28;10540;-80
2022/03/17 11:59:58;;;;;;;;;18.00;16.00;;;;;;;;4942154;28;10493;-79
2022/03/17 12:02:30;;;;;;;;;11.75;11.00;;;;;;;;4938025;28;11396;-85
2022/03/17 12:05:11;;;;;;;;;11.50;11.00;;;;;;;;4939701;28;11159;-85
2022/03/17 12:07:46;;;;;;;;;12.00;12.00;;;;;;;;4940698;28;10510;-79
2022/03/17 12:10:13;;;;;;;;;8.75;6.75;;;;;;;;4940987;28;10748;-78
2022/03/17 12:12:43;;;;;;;;;12.00;11.50;;;;;;;;4946933;28;10535;-79
2022/03/17 12:15:12;;;;;;;;;11.50;11.50;;;;;;;;4946050;28;10703;-84
2022/03/17 12:17:39;;;;;;;;;11.75;11.75;;;;;;;;4931864;28;10724;-83
2022/03/17 12:20:14;;;;;;;;;12.00;9.25;;;;;;;;4929884;28;10608;-82
2022/03/17 12:22:44;;;;;;;;;16.75;11.75;;;;;;;;4990663;28;10681;-77
2022/03/17 12:25:17;;;;;;;;;10.75;10.75;;;;;;;;4941408;28;10526;-83
2022/03/17 12:28:21;;;;;;;;;5.00;1.75;;;;;;;;4942812;28;11209;-77
2022/03/17 12:30:55;;;;;;;;;17.50;12.00;;;;;;;;4961437;28;10399;-80
2022/03/17 12:33:23;;;;;;;;;11.75;8.75;;;;;;;;4955449;28;10611;-79
2022/03/17 12:36:04;;;;;;;;;13.00;9.25;;;;;;;;4924545;28;10393;-81
2022/03/17 12:38:31;;;;;;;;;13.00;13.00;;;;;;;;4940852;28;10526;-81
2022/03/17 12:41:00;;;;;;;;;13.00;11.75;;;;;;;;4944649;28;10454;-84
2022/03/17 12:43:28;;;;;;;;;7.25;5.25;;;;;;;;4940754;28;10527;-81
2022/03/17 12:45:56;;;;;;;;;10.25;10.25;;;;;;;;4944362;28;11233;-87
2022/03/17 12:48:25;;;;;;;;;17.50;11.25;;;;;;;;4953236;28;10574;-86
2022/03/17 12:50:54;;;;;;;;;12.00;12.00;;;;;;;;4934922;28;10566;-87
2022/03/17 12:53:21;;;;;;;;;20.75;20.75;;;;;;;;4935103;28;10796;-83
2022/03/17 12:55:52;;;;;;;;;19.75;17.00;;;;;;;;4946885;28;10622;-85
2022/03/17 12:58:19;;;;;;;;;11.00;11.00;;;;;;;;4944935;28;10542;-84
2022/03/17 13:00:48;;;;;;;;;11.25;11.25;;;;;;;;4927582;28;10489;-82
2022/03/17 13:03:18;;;;;;;;;13.00;10.50;;;;;;;;4942534;28;10557;-84
2022/03/17 13:08:39;;;;;;;;;13.25;12.00;;;;;;;;4941433;28;10554;-80
2022/03/17 13:16:43;;;;;;;;;12.50;10.25;;;;;;;;5002164;28;10196;-81
2022/03/17 13:19:10;;;;;;;;;17.50;17.25;;;;;;;;5006424;28;10171;-85
2022/03/17 13:21:38;;;;;;;;;11.50;9.25;;;;;;;;4932052;28;10461;-79
2022/03/17 13:24:16;;;;;;;;;10.50;10.50;;;;;;;;4940705;28;10975;-82
2022/03/17 13:26:44;;;;;;;;;9.00;9.00;;;;;;;;4948044;28;10292;-81
2022/03/17 13:29:14;;;;;;;;;13.00;9.00;;;;;;;;4951303;28;10190;-81
2022/03/17 13:31:44;;;;;;;;;11.75;11.75;;;;;;;;4934220;28;10344;-80
2022/03/17 13:34:26;;;;;;;;;18.50;15.25;;;;;;;;4939131;28;10238;-82
2022/03/17 13:36:55;;;;;;;;;14.00;12.25;;;;;;;;4935862;28;10507;-84
2022/03/17 13:39:32;;;;;;;;;11.75;8.50;;;;;;;;4945296;28;10373;-83
2022/03/17 13:42:02;;;;;;;;;8.75;8.00;;;;;;;;4951412;28;10328;-80
2022/03/17 13:44:49;;;;;;;;;11.25;8.25;;;;;;;;4949231;28;10449;-81
2022/03/17 13:47:21;;;;;;;;;14.00;9.00;;;;;;;;4935947;28;10419;-83
2022/03/17 13:50:10;;;;;;;;;13.25;13.25;;;;;;;;4966144;28;10450;-82
2022/03/17 13:52:38;;;;;;;;;11.75;11.75;;;;;;;;4957460;28;10372;-80
2022/03/17 13:55:11;;;;;;;;;15.00;13.50;;;;;;;;5002523;28;10294;-81
2022/03/17 13:57:40;;;;;;;;;12.25;12.00;;;;;;;;4941698;28;10328;-81
2022/03/17 14:00:20;;;;;;;;;13.00;13.00;;;;;;;;4922959;28;10501;-80
2022/03/17 14:02:50;;;;;;;;;11.25;11.25;;;;;;;;4936494;28;10219;-83
2022/03/17 14:05:18;;;;;;;;;14.50;13.25;;;;;;;;4953304;28;10383;-83
2022/03/17 14:07:45;;;;;;;;;11.00;11.00;;;;;;;;4938953;28;10224;-81
2022/03/17 14:10:14;;;;;;;;;12.00;11.00;;;;;;;;4919916;28;10124;-80
2022/03/17 14:12:41;;;;;;;;;9.75;9.75;;;;;;;;4946280;28;10192;-80
2022/03/17 14:15:10;;;;;;;;;14.75;10.50;;;;;;;;4941281;28;10086;-81
2022/03/17 14:17:37;;;;;;;;;12.75;12.00;;;;;;;;4938953;28;10055;-80
2022/03/17 14:20:05;;;;;;;;;11.75;11.75;;;;;;;;4924120;28;10105;-82
2022/03/17 14:25:21;;;;;;;;;7.75;7.75;;;;;;;;4919409;28;10359;-81
2022/03/17 14:27:49;;;;;;;;;14.50;8.75;;;;;;;;4937836;28;10141;-79
2022/03/17 14:30:17;;;;;;;;;11.50;10.00;;;;;;;;4920082;28;10123;-81
2022/03/17 14:32:44;;;;;;;;;14.50;12.50;;;;;;;;4932470;28;10297;-78
2022/03/17 14:35:11;;;;;;;;;10.50;10.25;;;;;;;;4930806;28;10204;-82
2022/03/17 14:37:40;;;;;;;;;9.75;9.75;;;;;;;;4931531;28;10153;-80
2022/03/17 14:40:09;;;;;;;;;13.25;13.25;;;;;;;;4931927;28;10329;-77
2022/03/17 14:42:38;;;;;;;;;19.50;15.00;;;;;;;;4920940;28;10388;-84
2022/03/17 14:45:06;;;;;;;;;15.00;13.25;;;;;;;;4937088;28;10321;-79
2022/03/17 14:47:35;;;;;;;;;17.75;13.75;;;;;;;;4915971;28;10301;-84
2022/03/17 14:50:04;;;;;;;;;19.25;15.50;;;;;;;;4924084;28;10400;-82
2022/03/17 14:52:31;;;;;;;;;17.25;13.75;;;;;;;;4937173;28;10096;-79
2022/03/17 14:54:58;;;;;;;;;17.00;14.50;;;;;;;;4932594;28;10114;-78
2022/03/17 14:57:26;;;;;;;;;16.50;15.75;;;;;;;;4930905;28;10228;-79
2022/03/17 14:59:56;;;;;;;;;15.00;13.50;;;;;;;;4930256;28;10134;-80
2022/03/17 15:02:24;;;;;;;;;11.75;10.25;;;;;;;;4930803;28;10319;-82
2022/03/17 15:04:51;;;;;;;;;14.00;14.00;;;;;;;;4927898;28;10273;-82